sensor_id;sensor_type;location;lat;lon;timestamp;pressure;altitude;pressure_sealevel;temperature;humidity
77739;BME280;66904;59.926;30.404;2024-03-29T00:01:12;99966.03;;;10.10;54.49
77739;BME280;66904;59.926;30.404;2024-03-29T00:06:22;99960.47;;;10.13;54.34
77739;BME280;66904;59.926;30.404;2024-03-29T00:11:33;99953.66;;;10.10;54.61
77739;BME280;66904;59.926;30.404;2024-03-29T00:16:44;99940.72;;;10.07;54.59
77739;BME280;66904;59.926;30.404;2024-03-29T00:21:55;99942.25;;;10.10;54.68
77739;BME280;66904;59.926;30.404;2024-03-29T00:27:05;99925.44;;;10.11;54.45
77739;BME280;66904;59.926;30.404;2024-03-29T00:32:16;99926.97;;;10.13;54.34
77739;BME280;66904;59.926;30.404;2024-03-29T00:37:27;99909.44;;;10.12;54.60
77739;BME280;66904;59.926;30.404;2024-03-29T00:42:37;99897.06;;;10.13;54.23
77739;BME280;66904;59.926;30.404;2024-03-29T00:47:48;99898.78;;;10.14;54.29
77739;BME280;66904;59.926;30.404;2024-03-29T00:52:59;99879.94;;;10.07;54.51
77739;BME280;66904;59.926;30.404;2024-03-29T00:58:10;99882.31;;;10.10;54.54
77739;BME280;66904;59.926;30.404;2024-03-29T01:03:21;99869.59;;;10.04;54.65
77739;BME280;66904;59.926;30.404;2024-03-29T01:08:32;99855.75;;;9.91;54.30
77739;BME280;66904;59.926;30.404;2024-03-29T01:13:42;99861.13;;;9.80;54.55
77739;BME280;66904;59.926;30.404;2024-03-29T01:18:53;99859.97;;;9.73;54.54
77739;BME280;66904;59.926;30.404;2024-03-29T01:24:04;99848.63;;;9.61;54.58
77739;BME280;66904;59.926;30.404;2024-03-29T01:29:15;99845.81;;;9.53;54.57
77739;BME280;66904;59.926;30.404;2024-03-29T01:34:26;99835.38;;;9.52;54.61
77739;BME280;66904;59.926;30.404;2024-03-29T01:39:37;99831.66;;;9.54;54.72
77739;BME280;66904;59.926;30.404;2024-03-29T01:44:47;99825.00;;;9.60;54.57
77739;BME280;66904;59.926;30.404;2024-03-29T01:49:58;99813.22;;;9.64;54.53
77739;BME280;66904;59.926;30.404;2024-03-29T01:55:09;99811.44;;;9.64;54.39
77739;BME280;66904;59.926;30.404;2024-03-29T02:00:21;99798.22;;;9.64;54.30
77739;BME280;66904;59.926;30.404;2024-03-29T02:05:32;99801.56;;;9.66;54.09
77739;BME280;66904;59.926;30.404;2024-03-29T02:10:46;99791.69;;;9.68;54.42
77739;BME280;66904;59.926;30.404;2024-03-29T02:15:58;99779.16;;;9.61;54.35
77739;BME280;66904;59.926;30.404;2024-03-29T02:21:09;99789.78;;;9.70;54.27
77739;BME280;66904;59.926;30.404;2024-03-29T02:26:19;99769.88;;;9.66;54.19
77739;BME280;66904;59.926;30.404;2024-03-29T02:31:30;99778.50;;;9.68;54.18
77739;BME280;66904;59.926;30.404;2024-03-29T02:36:41;99779.34;;;9.69;54.17
77739;BME280;66904;59.926;30.404;2024-03-29T02:41:54;99776.97;;;9.66;54.16
77739;BME280;66904;59.926;30.404;2024-03-29T02:47:04;99771.81;;;9.64;54.32
77739;BME280;66904;59.926;30.404;2024-03-29T02:52:15;99772.38;;;9.68;54.10
77739;BME280;66904;59.926;30.404;2024-03-29T02:57:26;99770.44;;;9.70;54.24
77739;BME280;66904;59.926;30.404;2024-03-29T03:02:40;99770.44;;;9.70;54.21
77739;BME280;66904;59.926;30.404;2024-03-29T03:07:51;99765.28;;;9.68;54.36
77739;BME280;66904;59.926;30.404;2024-03-29T03:13:20;99749.97;;;9.62;54.18
77739;BME280;66904;59.926;30.404;2024-03-29T03:18:31;99751.38;;;9.66;54.17
77739;BME280;66904;59.926;30.404;2024-03-29T03:23:42;99742.50;;;9.67;54.41
77739;BME280;66904;59.926;30.404;2024-03-29T03:28:52;99730.69;;;9.71;54.44
77739;BME280;66904;59.926;30.404;2024-03-29T03:34:03;99732.53;;;9.71;54.56
77739;BME280;66904;59.926;30.404;2024-03-29T03:39:14;99734.16;;;9.72;54.54
77739;BME280;66904;59.926;30.404;2024-03-29T03:44:25;99710.94;;;9.66;54.58
77739;BME280;66904;59.926;30.404;2024-03-29T03:49:35;99727.53;;;9.77;54.26
77739;BME280;66904;59.926;30.404;2024-03-29T03:54:46;99726.44;;;9.80;54.51
77739;BME280;66904;59.926;30.404;2024-03-29T03:59:57;99721.84;;;9.82;54.51
77739;BME280;66904;59.926;30.404;2024-03-29T04:05:07;99715.03;;;9.79;54.53
77739;BME280;66904;59.926;30.404;2024-03-29T04:10:18;99705.31;;;9.80;54.84
77739;BME280;66904;59.926;30.404;2024-03-29T04:15:29;99704.59;;;9.78;54.45
77739;BME280;66904;59.926;30.404;2024-03-29T04:20:40;99710.44;;;9.81;54.72
77739;BME280;66904;59.926;30.404;2024-03-29T04:25:58;99700.72;;;9.82;54.70
77739;BME280;66904;59.926;30.404;2024-03-29T04:31:09;99698.78;;;9.84;54.89
77739;BME280;66904;59.926;30.404;2024-03-29T04:36:20;99696.72;;;9.88;54.87
77739;BME280;66904;59.926;30.404;2024-03-29T04:41:30;99683.53;;;9.88;54.67
77739;BME280;66904;59.926;30.404;2024-03-29T04:46:44;99671.84;;;9.90;54.89
77739;BME280;66904;59.926;30.404;2024-03-29T04:51:55;99665.56;;;9.91;54.84
77739;BME280;66904;59.926;30.404;2024-03-29T04:57:06;99669.03;;;9.92;54.73
77739;BME280;66904;59.926;30.404;2024-03-29T05:02:17;99661.84;;;9.94;54.93
77739;BME280;66904;59.926;30.404;2024-03-29T05:07:27;99659.88;;;9.96;54.90
77739;BME280;66904;59.926;30.404;2024-03-29T05:12:38;99672.13;;;9.97;54.96
77739;BME280;66904;59.926;30.404;2024-03-29T05:17:49;99657.13;;;9.97;55.01
77739;BME280;66904;59.926;30.404;2024-03-29T05:23:00;99651.00;;;9.97;55.27
77739;BME280;66904;59.926;30.404;2024-03-29T05:28:11;99648.91;;;10.00;54.96
77739;BME280;66904;59.926;30.404;2024-03-29T05:33:21;99640.00;;;10.01;55.22
77739;BME280;66904;59.926;30.404;2024-03-29T05:38:32;99638.06;;;10.03;55.13
77739;BME280;66904;59.926;30.404;2024-03-29T05:43:43;99642.81;;;10.09;55.13
77739;BME280;66904;59.926;30.404;2024-03-29T05:48:54;99632.81;;;10.13;55.16
77739;BME280;66904;59.926;30.404;2024-03-29T05:54:04;99634.09;;;10.18;55.07
77739;BME280;66904;59.926;30.404;2024-03-29T05:59:15;99632.56;;;10.25;55.07
77739;BME280;66904;59.926;30.404;2024-03-29T06:04:26;99630.91;;;10.34;55.17
77739;BME280;66904;59.926;30.404;2024-03-29T06:09:42;99628.56;;;10.41;55.01
77739;BME280;66904;59.926;30.404;2024-03-29T06:14:53;99628.81;;;10.47;55.03
77739;BME280;66904;59.926;30.404;2024-03-29T06:20:23;99620.88;;;10.57;55.35
77739;BME280;66904;59.926;30.404;2024-03-29T06:25:34;99609.75;;;10.63;55.41
77739;BME280;66904;59.926;30.404;2024-03-29T06:30:45;99601.09;;;10.70;55.25
77739;BME280;66904;59.926;30.404;2024-03-29T06:35:55;99602.88;;;10.89;54.90
77739;BME280;66904;59.926;30.404;2024-03-29T06:41:06;99605.06;;;11.03;55.06
77739;BME280;66904;59.926;30.404;2024-03-29T06:46:17;99606.72;;;11.04;55.09
77739;BME280;66904;59.926;30.404;2024-03-29T06:51:27;99590.28;;;11.01;54.90
77739;BME280;66904;59.926;30.404;2024-03-29T06:56:38;99602.25;;;11.05;55.05
77739;BME280;66904;59.926;30.404;2024-03-29T07:01:50;99597.41;;;11.00;54.99
77739;BME280;66904;59.926;30.404;2024-03-29T07:07:03;99596.41;;;11.01;54.97
77739;BME280;66904;59.926;30.404;2024-03-29T07:12:14;99591.66;;;11.05;55.18
77739;BME280;66904;59.926;30.404;2024-03-29T07:17:25;99598.22;;;11.01;55.49
77739;BME280;66904;59.926;30.404;2024-03-29T07:22:36;99592.25;;;10.99;55.62
77739;BME280;66904;59.926;30.404;2024-03-29T07:27:46;99587.91;;;11.07;55.25
77739;BME280;66904;59.926;30.404;2024-03-29T07:32:58;99588.16;;;11.23;55.46
77739;BME280;66904;59.926;30.404;2024-03-29T07:38:08;99587.09;;;11.34;55.35
77739;BME280;66904;59.926;30.404;2024-03-29T07:43:19;99576.22;;;11.64;55.32
77739;BME280;66904;59.926;30.404;2024-03-29T07:48:30;99566.44;;;11.74;54.76
77739;BME280;66904;59.926;30.404;2024-03-29T07:53:40;99571.31;;;11.69;54.65
77739;BME280;66904;59.926;30.404;2024-03-29T07:58:52;99570.91;;;11.64;54.97
77739;BME280;66904;59.926;30.404;2024-03-29T08:04:03;99559.66;;;11.62;55.10
77739;BME280;66904;59.926;30.404;2024-03-29T08:09:14;99561.03;;;11.66;55.26
77739;BME280;66904;59.926;30.404;2024-03-29T08:14:25;99554.44;;;11.70;55.12
77739;BME280;66904;59.926;30.404;2024-03-29T08:19:41;99551.47;;;11.83;55.38
77739;BME280;66904;59.926;30.404;2024-03-29T08:24:52;99552.66;;;11.88;55.65
77739;BME280;66904;59.926;30.404;2024-03-29T08:30:03;99551.75;;;12.15;54.91
77739;BME280;66904;59.926;30.404;2024-03-29T08:35:14;99553.44;;;12.16;54.74
77739;BME280;66904;59.926;30.404;2024-03-29T08:40:27;99543.34;;;12.20;55.08
77739;BME280;66904;59.926;30.404;2024-03-29T08:45:44;99530.47;;;12.25;54.81
77739;BME280;66904;59.926;30.404;2024-03-29T08:50:55;99534.78;;;12.26;54.85
77739;BME280;66904;59.926;30.404;2024-03-29T08:56:06;99514.81;;;12.39;54.94
77739;BME280;66904;59.926;30.404;2024-03-29T09:01:17;99515.19;;;12.70;54.63
77739;BME280;66904;59.926;30.404;2024-03-29T09:06:28;99501.94;;;13.04;54.45
77739;BME280;66904;59.926;30.404;2024-03-29T09:11:38;99503.22;;;13.26;54.31
77739;BME280;66904;59.926;30.404;2024-03-29T09:16:50;99496.09;;;13.18;54.25
77739;BME280;66904;59.926;30.404;2024-03-29T09:22:01;99493.47;;;13.01;54.58
77739;BME280;66904;59.926;30.404;2024-03-29T09:27:11;99492.75;;;12.82;54.54
77739;BME280;66904;59.926;30.404;2024-03-29T09:32:23;99488.88;;;12.77;54.64
77739;BME280;66904;59.926;30.404;2024-03-29T09:37:33;99493.53;;;12.83;55.10
77739;BME280;66904;59.926;30.404;2024-03-29T09:42:46;99492.97;;;12.97;54.78
77739;BME280;66904;59.926;30.404;2024-03-29T09:47:58;99494.09;;;13.20;54.92
77739;BME280;66904;59.926;30.404;2024-03-29T09:53:10;99487.94;;;13.20;54.56
77739;BME280;66904;59.926;30.404;2024-03-29T09:58:21;99481.50;;;13.22;54.65
77739;BME280;66904;59.926;30.404;2024-03-29T10:03:36;99481.19;;;13.33;54.36
77739;BME280;66904;59.926;30.404;2024-03-29T10:08:47;99482.53;;;13.37;54.47
77739;BME280;66904;59.926;30.404;2024-03-29T10:13:58;99479.41;;;13.50;54.37
77739;BME280;66904;59.926;30.404;2024-03-29T10:19:11;99467.13;;;13.57;54.43
77739;BME280;66904;59.926;30.404;2024-03-29T10:24:22;99476.81;;;13.74;54.31
77739;BME280;66904;59.926;30.404;2024-03-29T10:29:33;99473.97;;;13.84;53.94
77739;BME280;66904;59.926;30.404;2024-03-29T10:34:44;99468.16;;;13.80;54.06
77739;BME280;66904;59.926;30.404;2024-03-29T10:39:55;99475.13;;;13.73;54.45
77739;BME280;66904;59.926;30.404;2024-03-29T10:45:08;99469.31;;;13.78;54.47
77739;BME280;66904;59.926;30.404;2024-03-29T10:50:19;99466.19;;;13.90;54.52
77739;BME280;66904;59.926;30.404;2024-03-29T10:55:30;99454.03;;;13.96;54.44
77739;BME280;66904;59.926;30.404;2024-03-29T11:00:46;99456.53;;;14.14;54.00
77739;BME280;66904;59.926;30.404;2024-03-29T11:06:02;99453.41;;;14.34;53.86
77739;BME280;66904;59.926;30.404;2024-03-29T11:11:14;99441.25;;;14.40;53.59
77739;BME280;66904;59.926;30.404;2024-03-29T11:16:25;99443.22;;;14.46;53.98
77739;BME280;66904;59.926;30.404;2024-03-29T11:21:36;99432.03;;;14.67;53.55
77739;BME280;66904;59.926;30.404;2024-03-29T11:26:46;99428.19;;;14.69;53.67
77739;BME280;66904;59.926;30.404;2024-03-29T11:31:57;99425.84;;;14.74;53.61
77739;BME280;66904;59.926;30.404;2024-03-29T11:37:11;99422.84;;;14.77;53.61
77739;BME280;66904;59.926;30.404;2024-03-29T11:47:48;99415.28;;;14.97;53.67
77739;BME280;66904;59.926;30.404;2024-03-29T11:53:02;99406.19;;;15.14;53.72
77739;BME280;66904;59.926;30.404;2024-03-29T11:58:13;99396.75;;;15.34;53.36
77739;BME280;66904;59.926;30.404;2024-03-29T12:03:26;99389.78;;;15.56;53.23
77739;BME280;66904;59.926;30.404;2024-03-29T12:08:40;99388.56;;;15.67;52.82
77739;BME280;66904;59.926;30.404;2024-03-29T12:13:52;99388.09;;;15.63;52.82
77739;BME280;66904;59.926;30.404;2024-03-29T12:19:03;99392.22;;;15.66;53.27
77739;BME280;66904;59.926;30.404;2024-03-29T12:24:14;99380.84;;;15.72;52.97
77739;BME280;66904;59.926;30.404;2024-03-29T12:29:24;99371.59;;;15.82;52.76
77739;BME280;66904;59.926;30.404;2024-03-29T12:34:36;99376.28;;;15.80;52.80
77739;BME280;66904;59.926;30.404;2024-03-29T12:39:48;99365.50;;;15.74;52.62
77739;BME280;66904;59.926;30.404;2024-03-29T12:45:02;99369.13;;;15.81;53.05
77739;BME280;66904;59.926;30.404;2024-03-29T12:50:28;99373.81;;;15.93;52.42
77739;BME280;66904;59.926;30.404;2024-03-29T12:55:44;99376.88;;;16.05;52.60
77739;BME280;66904;59.926;30.404;2024-03-29T13:00:56;99370.63;;;16.13;52.74
77739;BME280;66904;59.926;30.404;2024-03-29T13:06:06;99359.22;;;16.19;52.66
77739;BME280;66904;59.926;30.404;2024-03-29T13:11:17;99355.56;;;16.20;52.51
77739;BME280;66904;59.926;30.404;2024-03-29T13:16:28;99364.03;;;16.23;52.76
77739;BME280;66904;59.926;30.404;2024-03-29T13:21:39;99365.97;;;16.29;52.48
77739;BME280;66904;59.926;30.404;2024-03-29T13:26:49;99355.91;;;16.31;52.38
77739;BME280;66904;59.926;30.404;2024-03-29T13:32:00;99362.09;;;16.32;52.30
77739;BME280;66904;59.926;30.404;2024-03-29T13:37:11;99368.97;;;16.12;52.51
77739;BME280;66904;59.926;30.404;2024-03-29T13:42:22;99370.44;;;15.99;52.65
77739;BME280;66904;59.926;30.404;2024-03-29T13:47:33;99369.59;;;15.99;52.96
77739;BME280;66904;59.926;30.404;2024-03-29T13:52:44;99379.53;;;15.90;52.91
77739;BME280;66904;59.926;30.404;2024-03-29T13:57:55;99357.03;;;15.70;52.77
77739;BME280;66904;59.926;30.404;2024-03-29T14:03:06;99382.56;;;15.65;52.98
77739;BME280;66904;59.926;30.404;2024-03-29T14:08:17;99376.75;;;15.61;53.20
77739;BME280;66904;59.926;30.404;2024-03-29T14:13:27;99373.03;;;15.47;53.05
77739;BME280;66904;59.926;30.404;2024-03-29T14:18:38;99369.19;;;15.42;53.23
77739;BME280;66904;59.926;30.404;2024-03-29T14:23:49;99379.03;;;15.49;53.08
77739;BME280;66904;59.926;30.404;2024-03-29T14:29:00;99391.00;;;15.45;53.26
77739;BME280;66904;59.926;30.404;2024-03-29T14:34:10;99389.91;;;15.32;53.22
77739;BME280;66904;59.926;30.404;2024-03-29T14:39:21;99396.06;;;15.10;53.33
77739;BME280;66904;59.926;30.404;2024-03-29T14:44:32;99393.84;;;14.82;53.44
77739;BME280;66904;59.926;30.404;2024-03-29T14:49:42;99403.03;;;14.80;53.84
77739;BME280;66904;59.926;30.404;2024-03-29T14:54:53;99410.09;;;14.65;53.71
77739;BME280;66904;59.926;30.404;2024-03-29T15:00:06;99418.44;;;14.54;54.19
77739;BME280;66904;59.926;30.404;2024-03-29T15:05:19;99435.56;;;14.51;54.08
77739;BME280;66904;59.926;30.404;2024-03-29T15:10:29;99437.25;;;14.28;54.17
77739;BME280;66904;59.926;30.404;2024-03-29T15:15:42;99445.75;;;14.07;54.28
77739;BME280;66904;59.926;30.404;2024-03-29T15:20:59;99458.38;;;13.81;54.52
77739;BME280;66904;59.926;30.404;2024-03-29T15:26:10;99461.16;;;13.55;54.99
77739;BME280;66904;59.926;30.404;2024-03-29T15:31:21;99469.94;;;13.48;55.30
77739;BME280;66904;59.926;30.404;2024-03-29T15:36:33;99473.81;;;13.19;55.69
77739;BME280;66904;59.926;30.404;2024-03-29T15:41:44;99484.34;;;12.95;56.33
77739;BME280;66904;59.926;30.404;2024-03-29T15:46:55;99500.44;;;12.68;57.25
77739;BME280;66904;59.926;30.404;2024-03-29T15:52:05;99517.72;;;12.46;58.01
77739;BME280;66904;59.926;30.404;2024-03-29T15:57:17;99517.66;;;12.20;58.52
77739;BME280;66904;59.926;30.404;2024-03-29T16:02:28;99521.22;;;11.93;59.67
77739;BME280;66904;59.926;30.404;2024-03-29T16:07:39;99516.94;;;11.75;59.79
77739;BME280;66904;59.926;30.404;2024-03-29T16:12:49;99512.50;;;11.66;60.05
77739;BME280;66904;59.926;30.404;2024-03-29T16:18:00;99522.16;;;11.57;60.44
77739;BME280;66904;59.926;30.404;2024-03-29T16:23:11;99526.84;;;11.46;61.07
77739;BME280;66904;59.926;30.404;2024-03-29T16:28:22;99527.75;;;11.36;61.26
77739;BME280;66904;59.926;30.404;2024-03-29T16:33:34;99526.66;;;11.29;61.40
77739;BME280;66904;59.926;30.404;2024-03-29T16:38:48;99528.59;;;11.27;61.80
77739;BME280;66904;59.926;30.404;2024-03-29T16:44:00;99524.06;;;11.20;61.85
77739;BME280;66904;59.926;30.404;2024-03-29T16:49:11;99527.25;;;11.23;62.51
77739;BME280;66904;59.926;30.404;2024-03-29T16:54:22;99537.09;;;11.31;62.11
77739;BME280;66904;59.926;30.404;2024-03-29T16:59:32;99535.81;;;11.35;62.18
77739;BME280;66904;59.926;30.404;2024-03-29T17:04:44;99541.78;;;11.37;62.35
77739;BME280;66904;59.926;30.404;2024-03-29T17:09:58;99544.97;;;11.40;62.88
77739;BME280;66904;59.926;30.404;2024-03-29T17:15:09;99548.88;;;11.46;62.75
77739;BME280;66904;59.926;30.404;2024-03-29T17:20:20;99542.38;;;11.31;62.80
77739;BME280;66904;59.926;30.404;2024-03-29T17:25:30;99573.47;;;11.29;63.22
77739;BME280;66904;59.926;30.404;2024-03-29T17:30:42;99564.50;;;11.12;63.52
77739;BME280;66904;59.926;30.404;2024-03-29T17:35:52;99585.16;;;10.99;63.39
77739;BME280;66904;59.926;30.404;2024-03-29T17:41:03;99586.72;;;10.82;63.45
77739;BME280;66904;59.926;30.404;2024-03-29T17:46:14;99584.94;;;10.83;63.38
77739;BME280;66904;59.926;30.404;2024-03-29T17:51:25;99590.63;;;10.78;63.62
77739;BME280;66904;59.926;30.404;2024-03-29T17:56:36;99596.34;;;10.74;64.15
77739;BME280;66904;59.926;30.404;2024-03-29T18:01:46;99604.00;;;10.67;63.84
77739;BME280;66904;59.926;30.404;2024-03-29T18:06:57;99613.22;;;10.63;64.20
77739;BME280;66904;59.926;30.404;2024-03-29T18:12:08;99612.66;;;10.60;64.33
77739;BME280;66904;59.926;30.404;2024-03-29T18:17:19;99618.78;;;10.60;64.61
77739;BME280;66904;59.926;30.404;2024-03-29T18:22:30;99628.38;;;10.61;64.36
77739;BME280;66904;59.926;30.404;2024-03-29T18:27:40;99629.50;;;10.59;64.70
77739;BME280;66904;59.926;30.404;2024-03-29T18:32:52;99629.22;;;10.52;65.04
77739;BME280;66904;59.926;30.404;2024-03-29T18:38:03;99635.06;;;10.46;65.05
77739;BME280;66904;59.926;30.404;2024-03-29T18:43:13;99636.31;;;10.42;65.28
77739;BME280;66904;59.926;30.404;2024-03-29T18:48:24;99640.38;;;10.36;65.28
77739;BME280;66904;59.926;30.404;2024-03-29T18:53:37;99654.16;;;10.40;65.59
77739;BME280;66904;59.926;30.404;2024-03-29T18:58:50;99663.72;;;10.41;65.62
77739;BME280;66904;59.926;30.404;2024-03-29T19:04:01;99672.22;;;10.35;65.73
77739;BME280;66904;59.926;30.404;2024-03-29T19:09:12;99673.88;;;10.26;66.30
77739;BME280;66904;59.926;30.404;2024-03-29T19:14:22;99679.81;;;10.09;66.44
77739;BME280;66904;59.926;30.404;2024-03-29T19:19:33;99692.97;;;9.90;66.47
77739;BME280;66904;59.926;30.404;2024-03-29T19:24:45;99699.28;;;9.68;66.77
77739;BME280;66904;59.926;30.404;2024-03-29T19:29:59;99691.41;;;9.48;67.13
77739;BME280;66904;59.926;30.404;2024-03-29T19:35:10;99713.50;;;9.26;67.20
77739;BME280;66904;59.926;30.404;2024-03-29T19:40:22;99705.03;;;9.02;67.51
77739;BME280;66904;59.926;30.404;2024-03-29T19:45:32;99718.53;;;8.88;67.77
77739;BME280;66904;59.926;30.404;2024-03-29T19:50:43;99730.09;;;8.75;68.12
77739;BME280;66904;59.926;30.404;2024-03-29T19:55:54;99732.53;;;8.67;68.52
77739;BME280;66904;59.926;30.404;2024-03-29T20:01:05;99747.78;;;8.53;68.99
77739;BME280;66904;59.926;30.404;2024-03-29T20:06:16;99749.25;;;8.46;68.63
77739;BME280;66904;59.926;30.404;2024-03-29T20:11:27;99747.09;;;8.40;69.12
77739;BME280;66904;59.926;30.404;2024-03-29T20:16:37;99751.88;;;8.46;69.28
77739;BME280;66904;59.926;30.404;2024-03-29T20:21:48;99766.75;;;8.36;68.58
77739;BME280;66904;59.926;30.404;2024-03-29T20:26:59;99788.81;;;8.35;68.78
77739;BME280;66904;59.926;30.404;2024-03-29T20:32:10;99759.47;;;8.17;69.27
77739;BME280;66904;59.926;30.404;2024-03-29T20:37:20;99779.78;;;8.26;69.23
77739;BME280;66904;59.926;30.404;2024-03-29T20:42:32;99794.66;;;8.27;69.54
77739;BME280;66904;59.926;30.404;2024-03-29T20:47:43;99787.69;;;8.26;68.99
77739;BME280;66904;59.926;30.404;2024-03-29T20:52:56;99796.69;;;8.12;69.12
77739;BME280;66904;59.926;30.404;2024-03-29T20:58:08;99812.50;;;8.12;69.36
77739;BME280;66904;59.926;30.404;2024-03-29T21:03:19;99808.66;;;8.16;69.00
77739;BME280;66904;59.926;30.404;2024-03-29T21:08:48;99813.00;;;8.17;69.33
77739;BME280;66904;59.926;30.404;2024-03-29T21:13:59;99818.84;;;8.21;69.08
77739;BME280;66904;59.926;30.404;2024-03-29T21:19:10;99817.88;;;8.22;69.09
77739;BME280;66904;59.926;30.404;2024-03-29T21:24:21;99817.19;;;8.31;68.85
77739;BME280;66904;59.926;30.404;2024-03-29T21:29:32;99828.81;;;8.40;69.24
77739;BME280;66904;59.926;30.404;2024-03-29T21:34:43;99839.09;;;8.43;68.63
77739;BME280;66904;59.926;30.404;2024-03-29T21:39:53;99837.19;;;8.45;68.69
77739;BME280;66904;59.926;30.404;2024-03-29T21:45:04;99840.53;;;8.47;68.96
77739;BME280;66904;59.926;30.404;2024-03-29T21:50:17;99843.75;;;8.50;68.83
77739;BME280;66904;59.926;30.404;2024-03-29T21:55:27;99836.81;;;8.49;68.35
77739;BME280;66904;59.926;30.404;2024-03-29T22:00:38;99839.19;;;8.52;68.92
77739;BME280;66904;59.926;30.404;2024-03-29T22:05:49;99852.28;;;8.54;68.93
77739;BME280;66904;59.926;30.404;2024-03-29T22:11:00;99850.59;;;8.53;68.22
77739;BME280;66904;59.926;30.404;2024-03-29T22:16:11;99856.34;;;8.47;68.28
77739;BME280;66904;59.926;30.404;2024-03-29T22:21:22;99871.47;;;8.45;68.61
77739;BME280;66904;59.926;30.404;2024-03-29T22:26:35;99877.06;;;8.40;68.38
77739;BME280;66904;59.926;30.404;2024-03-29T22:31:46;99870.63;;;8.44;68.71
77739;BME280;66904;59.926;30.404;2024-03-29T22:36:58;99866.28;;;8.43;68.77
77739;BME280;66904;59.926;30.404;2024-03-29T22:42:11;99871.47;;;8.45;68.57
77739;BME280;66904;59.926;30.404;2024-03-29T22:47:21;99881.25;;;8.54;68.76
77739;BME280;66904;59.926;30.404;2024-03-29T22:52:32;99880.66;;;8.50;68.88
77739;BME280;66904;59.926;30.404;2024-03-29T22:57:43;99889.28;;;8.52;68.87
77739;BME280;66904;59.926;30.404;2024-03-29T23:02:53;99895.53;;;8.51;68.80
77739;BME280;66904;59.926;30.404;2024-03-29T23:08:07;99884.28;;;8.38;68.73
77739;BME280;66904;59.926;30.404;2024-03-29T23:13:19;99908.72;;;8.51;68.81
77739;BME280;66904;59.926;30.404;2024-03-29T23:18:30;99910.97;;;8.56;68.67
77739;BME280;66904;59.926;30.404;2024-03-29T23:23:41;99905.94;;;8.53;69.13
77739;BME280;66904;59.926;30.404;2024-03-29T23:28:51;99916.97;;;8.58;68.54
77739;BME280;66904;59.926;30.404;2024-03-29T23:34:02;99927.13;;;8.62;69.05
77739;BME280;66904;59.926;30.404;2024-03-29T23:39:13;99923.78;;;8.60;68.92
77739;BME280;66904;59.926;30.404;2024-03-29T23:44:23;99941.31;;;8.61;68.87
77739;BME280;66904;59.926;30.404;2024-03-29T23:49:34;99940.81;;;8.56;68.90
77739;BME280;66904;59.926;30.404;2024-03-29T23:54:57;99950.63;;;8.54;68.61
